createdAt,value
2019-05-07T00:01:52.537Z,10.05
2019-05-07T00:04:23.255Z,8.70
2019-05-07T00:06:54.581Z,11.40
2019-05-07T00:09:25.856Z,10.98
2019-05-07T00:11:58.117Z,8.75
2019-05-07T00:14:29.364Z,9.00
2019-05-07T00:17:02.224Z,13.25
2019-05-07T00:19:33.710Z,10.43
2019-05-07T00:22:04.837Z,10.65
2019-05-07T00:24:36.139Z,12.93
2019-05-07T00:27:07.334Z,12.90
2019-05-07T00:29:38.452Z,12.88
2019-05-07T00:32:12.102Z,10.43
2019-05-07T00:34:45.168Z,15.20
2019-05-07T00:37:22.044Z,12.30
2019-05-07T00:40:13.119Z,15.93
2019-05-07T00:42:48.822Z,17.27
2019-05-07T00:45:23.892Z,19.35
2019-05-07T00:47:54.562Z,14.70
2019-05-07T00:50:27.441Z,17.17
2019-05-07T00:52:58.776Z,17.95
2019-05-07T00:55:30.017Z,16.32
2019-05-07T00:58:02.334Z,18.92
2019-05-07T01:00:33.820Z,16.82
2019-05-07T01:03:05.035Z,18.90
2019-05-07T01:05:36.466Z,20.60
2019-05-07T01:08:07.686Z,22.20
2019-05-07T01:10:38.894Z,22.95
2019-05-07T01:13:12.018Z,21.85
2019-05-07T01:15:43.279Z,24.05
2019-05-07T01:18:14.626Z,23.87
2019-05-07T01:20:45.836Z,31.37
2019-05-07T01:23:17.140Z,23.02
2019-05-07T01:25:48.488Z,23.30
2019-05-07T01:28:22.091Z,28.42
2019-05-07T01:30:53.001Z,28.25
2019-05-07T01:33:36.136Z,26.75
2019-05-07T01:36:13.212Z,41.85
2019-05-07T01:38:44.816Z,64.20
2019-05-07T01:41:16.098Z,120.25
2019-05-07T01:43:47.381Z,111.92
2019-05-07T01:46:18.663Z,101.82
2019-05-07T01:48:53.895Z,95.67
2019-05-07T01:51:22.966Z,111.52
2019-05-07T01:53:54.298Z,102.00
2019-05-07T01:56:25.371Z,103.67
2019-05-07T01:58:56.613Z,98.87
2019-05-07T02:01:28.212Z,72.20
2019-05-07T02:04:18.303Z,58.85
2019-05-07T02:07:07.281Z,50.52
2019-05-07T02:09:42.332Z,83.70
2019-05-07T02:12:14.559Z,60.48
2019-05-07T02:14:45.786Z,82.60
2019-05-07T02:17:17.004Z,81.78
2019-05-07T02:19:48.270Z,69.75
2019-05-07T02:22:22.533Z,59.60
2019-05-07T02:24:53.874Z,57.50
2019-05-07T02:27:25.066Z,59.10
2019-05-07T02:29:56.760Z,49.45
2019-05-07T02:32:27.961Z,58.83
2019-05-07T02:34:59.152Z,54.15
2019-05-07T02:37:41.785Z,68.65
2019-05-07T02:40:14.219Z,60.75
2019-05-07T02:42:45.577Z,65.67
2019-05-07T02:45:18.415Z,96.82
2019-05-07T02:47:52.303Z,99.75
2019-05-07T02:50:35.603Z,119.00
2019-05-07T02:53:14.632Z,98.27
2019-05-07T02:55:52.671Z,123.97
2019-05-07T02:58:24.159Z,182.55
2019-05-07T03:00:55.567Z,101.15
2019-05-07T03:03:26.780Z,131.85
2019-05-07T03:05:58.008Z,148.02
2019-05-07T03:08:29.219Z,88.37
2019-05-07T03:11:03.357Z,75.32
2019-05-07T03:13:34.141Z,68.30
2019-05-07T03:16:05.279Z,61.98
2019-05-07T03:18:36.544Z,65.70
2019-05-07T03:21:12.729Z,34.85
2019-05-07T03:26:36.998Z,37.28
2019-05-07T03:29:12.845Z,39.30
2019-05-07T03:31:56.430Z,28.38
2019-05-07T03:34:36.822Z,26.25
2019-05-07T03:37:08.718Z,32.25
2019-05-07T03:39:42.936Z,29.12
2019-05-07T03:42:23.918Z,30.00
2019-05-07T03:44:58.183Z,47.75
2019-05-07T03:47:36.497Z,45.92
2019-05-07T03:50:14.231Z,32.70
2019-05-07T03:52:44.290Z,34.27
2019-05-07T03:55:15.574Z,26.07
2019-05-07T03:57:46.967Z,20.88
2019-05-07T04:00:18.235Z,21.85
2019-05-07T04:02:52.464Z,21.05
2019-05-07T04:05:23.186Z,29.95
2019-05-07T04:07:54.934Z,22.35
2019-05-07T04:10:26.158Z,32.15
2019-05-07T04:12:57.351Z,29.07
2019-05-07T04:15:28.678Z,26.50
2019-05-07T04:18:03.663Z,27.32
2019-05-07T04:20:35.118Z,30.85
2019-05-07T04:23:08.847Z,33.20
2019-05-07T04:25:53.129Z,24.00
2019-05-07T04:28:26.258Z,26.10
2019-05-07T04:30:58.578Z,27.00
2019-05-07T04:33:33.340Z,39.70
2019-05-07T04:36:14.565Z,31.97
2019-05-07T04:38:45.819Z,40.58
2019-05-07T04:41:17.153Z,40.23
2019-05-07T04:43:48.466Z,27.37
2019-05-07T04:46:19.623Z,39.08
2019-05-07T04:48:52.890Z,37.50
2019-05-07T04:51:25.812Z,29.40
2019-05-07T04:53:57.153Z,30.50
2019-05-07T04:56:28.335Z,25.32
2019-05-07T04:58:59.575Z,28.45
2019-05-07T05:01:32.985Z,18.73
2019-05-07T05:04:21.053Z,35.13
2019-05-07T05:06:39.068Z,18.67
2019-05-07T05:09:12.527Z,25.65
2019-05-07T05:11:43.999Z,35.73
2019-05-07T05:14:15.583Z,24.27
2019-05-07T05:16:46.637Z,28.10
2019-05-07T05:19:17.851Z,23.60
2019-05-07T05:21:53.632Z,21.52
2019-05-07T05:24:32.971Z,26.23
2019-05-07T05:27:04.418Z,40.28
2019-05-07T05:29:36.827Z,40.65
2019-05-07T05:32:08.025Z,40.90
2019-05-07T05:34:39.256Z,40.85
2019-05-07T05:37:11.927Z,40.85
2019-05-07T05:39:43.443Z,40.80
2019-05-07T05:42:22.588Z,40.75
2019-05-07T05:44:54.152Z,29.23
2019-05-07T05:47:25.512Z,33.25
2019-05-07T05:49:56.564Z,33.20
2019-05-07T05:52:38.241Z,40.95
2019-05-07T05:55:12.620Z,41.90
2019-05-07T05:57:51.974Z,35.40
2019-05-07T06:00:38.624Z,55.17
2019-05-07T06:03:27.819Z,21.97
2019-05-07T06:06:06.507Z,27.25
2019-05-07T06:08:57.667Z,33.78
2019-05-07T06:11:32.199Z,17.67
2019-05-07T06:14:06.100Z,29.50
2019-05-07T06:16:56.377Z,26.35
2019-05-07T06:19:42.405Z,23.65
2019-05-07T06:22:18.246Z,25.52
2019-05-07T06:24:52.157Z,15.25
2019-05-07T06:27:23.504Z,15.63
2019-05-07T06:29:54.924Z,32.67
2019-05-07T06:32:26.219Z,20.82
2019-05-07T06:34:57.407Z,12.13
2019-05-07T06:37:32.080Z,20.62
2019-05-07T06:40:06.058Z,25.08
2019-05-07T06:42:39.315Z,31.95
2019-05-07T06:45:24.198Z,27.40
2019-05-07T06:47:55.526Z,24.18
2019-05-07T06:50:26.575Z,26.30
2019-05-07T06:52:57.776Z,24.87
2019-05-07T06:55:29.264Z,28.07
2019-05-07T06:58:02.455Z,16.67
2019-05-07T07:00:44.145Z,16.67
2019-05-07T07:03:25.633Z,20.00
2019-05-07T07:05:58.522Z,10.63
2019-05-07T07:08:41.974Z,33.83
2019-05-07T07:11:17.910Z,13.15
2019-05-07T07:13:49.133Z,14.30
2019-05-07T07:16:22.464Z,16.23
2019-05-07T07:19:05.468Z,22.37
2019-05-07T07:21:36.570Z,16.90
2019-05-07T07:24:07.832Z,14.50
2019-05-07T07:26:39.212Z,17.27
2019-05-07T07:29:13.218Z,12.40
2019-05-07T07:31:52.784Z,19.37
2019-05-07T07:34:25.226Z,13.43
2019-05-07T07:37:13.527Z,15.53
2019-05-07T07:39:43.112Z,19.82
2019-05-07T07:42:14.510Z,14.13
2019-05-07T07:44:46.075Z,17.95
2019-05-07T07:47:17.527Z,13.55
2019-05-07T07:49:48.874Z,9.00
2019-05-07T07:52:20.021Z,12.93
2019-05-07T07:54:52.928Z,6.55
2019-05-07T07:57:42.626Z,11.65
2019-05-07T08:00:23.365Z,6.90
2019-05-07T08:02:56.130Z,8.25
2019-05-07T08:05:27.585Z,8.43
2019-05-07T08:07:58.922Z,5.92
2019-05-07T08:10:32.402Z,16.07
2019-05-07T08:13:05.699Z,10.05
2019-05-07T08:15:37.172Z,8.60
2019-05-07T08:18:08.523Z,11.48
2019-05-07T08:20:40.073Z,9.35
2019-05-07T08:23:12.213Z,6.50
2019-05-07T08:25:52.259Z,8.83
2019-05-07T08:28:23.466Z,11.45
2019-05-07T08:31:02.979Z,6.12
2019-05-07T08:33:38.598Z,18.70
2019-05-07T08:36:14.873Z,12.20
2019-05-07T08:38:53.103Z,11.10
2019-05-07T08:41:26.642Z,11.60
2019-05-07T08:44:11.547Z,8.55
2019-05-07T08:46:42.517Z,13.10
2019-05-07T08:49:15.585Z,8.55
2019-05-07T08:51:48.533Z,10.88
2019-05-07T08:54:19.803Z,13.03
2019-05-07T08:56:52.756Z,11.55
2019-05-07T08:59:24.562Z,9.30
2019-05-07T09:01:55.808Z,15.43
2019-05-07T09:04:26.986Z,13.25
2019-05-07T09:06:58.299Z,11.20
2019-05-07T09:09:32.085Z,10.38
2019-05-07T09:12:03.207Z,13.40
2019-05-07T09:14:34.472Z,7.00
2019-05-07T09:17:05.821Z,7.05
2019-05-07T09:19:50.060Z,6.92
2019-05-07T09:22:12.492Z,7.95
2019-05-07T09:24:42.977Z,8.23
2019-05-07T09:27:15.883Z,9.60
2019-05-07T09:29:52.065Z,10.75
2019-05-07T09:32:27.578Z,10.53
2019-05-07T09:35:09.837Z,12.68
2019-05-07T09:37:42.091Z,13.30
2019-05-07T09:40:13.673Z,12.73
2019-05-07T09:42:44.935Z,14.78
2019-05-07T09:45:16.187Z,10.75
2019-05-07T09:47:48.414Z,12.73
2019-05-07T09:50:21.877Z,13.70
2019-05-07T09:52:52.458Z,13.00
2019-05-07T09:55:23.905Z,12.20
2019-05-07T09:57:55.118Z,9.75
2019-05-07T10:00:26.352Z,12.98
2019-05-07T10:02:57.852Z,10.20
2019-05-07T10:05:29.184Z,13.58
2019-05-07T10:08:01.863Z,14.83
2019-05-07T10:10:33.413Z,17.48
2019-05-07T10:13:12.956Z,29.57
2019-05-07T10:15:44.196Z,14.80
2019-05-07T10:18:17.208Z,10.53
2019-05-07T10:20:48.452Z,8.98
2019-05-07T10:23:23.260Z,14.10
2019-05-07T10:25:54.953Z,7.93
2019-05-07T10:28:28.186Z,12.20
2019-05-07T10:30:59.552Z,13.65
2019-05-07T10:33:31.994Z,11.48
2019-05-07T10:36:03.486Z,13.95
2019-05-07T10:38:34.749Z,12.43
2019-05-07T10:41:07.871Z,14.95
2019-05-07T10:43:42.811Z,14.28
2019-05-07T10:46:27.426Z,16.15
2019-05-07T10:49:06.168Z,12.10
2019-05-07T10:51:37.497Z,17.60
2019-05-07T10:54:09.024Z,14.07
2019-05-07T10:56:41.885Z,12.63
2019-05-07T10:59:13.355Z,12.40
2019-05-07T11:01:46.470Z,16.85
2019-05-07T11:04:17.943Z,14.18
2019-05-07T11:06:52.146Z,14.50
2019-05-07T11:09:22.226Z,9.43
2019-05-07T11:11:53.542Z,11.55
2019-05-07T11:14:27.618Z,15.55
2019-05-07T11:17:02.508Z,17.02
2019-05-07T11:19:33.897Z,19.37
2019-05-07T11:22:06.612Z,16.00
2019-05-07T11:24:39.832Z,8.73
2019-05-07T11:27:11.919Z,13.15
2019-05-07T11:29:43.445Z,14.83
2019-05-07T11:32:14.706Z,12.82
2019-05-07T11:34:46.589Z,11.57
2019-05-07T11:37:19.879Z,16.82
2019-05-07T11:39:52.329Z,12.33
2019-05-07T11:42:25.192Z,11.73
2019-05-07T11:44:56.899Z,12.28
2019-05-07T11:47:31.833Z,17.48
2019-05-07T11:50:22.620Z,21.87
2019-05-07T11:53:01.352Z,22.27
2019-05-07T11:55:32.783Z,15.30
2019-05-07T11:58:03.873Z,28.02
2019-05-07T12:00:55.208Z,19.45
2019-05-07T12:03:26.345Z,18.98
2019-05-07T12:05:57.609Z,13.98
2019-05-07T12:08:40.950Z,31.17
2019-05-07T12:11:02.504Z,25.97
2019-05-07T12:13:33.948Z,16.00
2019-05-07T12:16:05.238Z,13.95
2019-05-07T12:18:36.412Z,18.92
2019-05-07T12:21:19.971Z,17.23
2019-05-07T12:23:44.499Z,21.82
2019-05-07T12:26:15.583Z,20.32
2019-05-07T12:28:47.026Z,15.65
2019-05-07T12:31:36.525Z,28.23
2019-05-07T12:34:12.265Z,29.30
2019-05-07T12:36:43.726Z,19.40
2019-05-07T12:39:15.075Z,24.50
2019-05-07T12:41:46.233Z,19.45
2019-05-07T12:44:17.555Z,20.75
2019-05-07T12:46:48.808Z,30.88
2019-05-07T12:49:21.996Z,20.90
2019-05-07T12:51:54.888Z,25.23
2019-05-07T12:54:36.524Z,18.05
2019-05-07T12:57:06.700Z,17.17
2019-05-07T12:59:38.130Z,22.70
2019-05-07T13:02:26.782Z,17.62
2019-05-07T13:04:47.091Z,22.32
2019-05-07T13:07:25.387Z,22.17
2019-05-07T13:09:58.286Z,27.50
2019-05-07T13:12:29.541Z,20.65
2019-05-07T13:15:02.772Z,14.03
2019-05-07T13:17:34.159Z,20.57
2019-05-07T13:20:07.013Z,20.75
2019-05-07T13:22:38.265Z,33.40
2019-05-07T13:25:09.501Z,16.05
2019-05-07T13:27:42.731Z,24.40
2019-05-07T13:30:13.622Z,16.73
2019-05-07T13:32:48.119Z,23.77
2019-05-07T13:35:18.240Z,19.10
2019-05-07T13:37:57.023Z,19.92
2019-05-07T13:40:34.214Z,21.97
2019-05-07T13:43:07.968Z,16.25
2019-05-07T13:45:49.005Z,18.00
2019-05-07T13:48:26.687Z,20.70
2019-05-07T13:50:59.140Z,22.45
2019-05-07T13:53:32.259Z,27.00
2019-05-07T13:56:04.430Z,15.75
2019-05-07T13:58:35.664Z,21.30
2019-05-07T14:01:22.855Z,22.93
2019-05-07T14:03:54.471Z,34.90
2019-05-07T14:06:42.596Z,17.20
2019-05-07T14:09:17.066Z,21.20
2019-05-07T14:11:48.503Z,29.82
2019-05-07T14:14:22.177Z,20.70
2019-05-07T14:16:53.356Z,23.45
2019-05-07T14:19:24.961Z,20.20
2019-05-07T14:21:55.968Z,18.25
2019-05-07T14:24:27.246Z,29.52
2019-05-07T14:26:58.696Z,17.10
2019-05-07T14:29:31.893Z,20.57
2019-05-07T14:32:05.730Z,18.20
2019-05-07T14:34:38.782Z,22.35
2019-05-07T14:37:17.401Z,27.55
2019-05-07T14:39:48.854Z,22.62
2019-05-07T14:42:32.717Z,27.80
2019-05-07T14:45:05.487Z,25.08
2019-05-07T14:47:36.922Z,17.02
2019-05-07T14:50:09.612Z,17.70
2019-05-07T14:52:43.293Z,20.82
2019-05-07T14:55:14.603Z,23.52
2019-05-07T14:57:45.760Z,28.20
2019-05-07T15:00:17.150Z,23.12
2019-05-07T15:02:49.214Z,20.62
2019-05-07T15:05:25.070Z,19.32
2019-05-07T15:08:07.405Z,17.40
2019-05-07T15:10:29.476Z,32.45
2019-05-07T15:13:02.228Z,21.30
2019-05-07T15:15:33.735Z,22.55
2019-05-07T15:18:15.418Z,21.33
2019-05-07T15:20:45.412Z,35.05
2019-05-07T15:23:22.538Z,15.18
2019-05-07T15:25:54.842Z,25.75
2019-05-07T15:28:26.440Z,17.73
2019-05-07T15:31:00.252Z,16.27
2019-05-07T15:33:32.375Z,22.02
2019-05-07T15:36:06.443Z,15.95
2019-05-07T15:38:36.959Z,18.73
2019-05-07T15:41:08.512Z,23.40
2019-05-07T15:43:43.912Z,20.10
2019-05-07T15:46:13.145Z,22.80
2019-05-07T15:48:45.633Z,35.25
2019-05-07T15:51:17.232Z,27.65
2019-05-07T15:53:54.362Z,28.17
2019-05-07T15:56:25.804Z,23.92
2019-05-07T15:58:57.163Z,32.85
2019-05-07T16:01:28.617Z,35.05
2019-05-07T16:04:02.834Z,28.62
2019-05-07T16:06:34.134Z,25.23
2019-05-07T16:09:07.794Z,19.65
2019-05-07T16:11:39.328Z,24.45
2019-05-07T16:14:14.503Z,28.73
2019-05-07T16:16:47.143Z,46.88
2019-05-07T16:19:24.029Z,29.82
2019-05-07T16:21:56.376Z,19.27
2019-05-07T16:24:27.839Z,23.77
2019-05-07T16:26:59.602Z,22.15
2019-05-07T16:29:33.753Z,25.90
2019-05-07T16:32:04.140Z,26.27
2019-05-07T16:34:37.342Z,21.82
2019-05-07T16:37:08.616Z,23.15
2019-05-07T16:39:41.991Z,25.77
2019-05-07T16:42:14.254Z,15.00
2019-05-07T16:44:45.590Z,20.27
2019-05-07T16:47:18.167Z,19.80
2019-05-07T16:49:51.130Z,15.08
2019-05-07T16:52:24.243Z,19.92
2019-05-07T16:54:55.467Z,15.45
2019-05-07T16:57:34.624Z,18.73
2019-05-07T17:00:07.698Z,13.20
2019-05-07T17:02:41.697Z,20.00
2019-05-07T17:05:14.612Z,16.57
2019-05-07T17:07:53.712Z,23.22
2019-05-07T17:10:25.312Z,20.23
2019-05-07T17:12:56.523Z,23.83
2019-05-07T17:15:28.053Z,26.77
2019-05-07T17:17:59.602Z,22.82
2019-05-07T17:20:32.712Z,23.22
2019-05-07T17:23:04.047Z,20.95
2019-05-07T17:25:38.452Z,21.02
2019-05-07T17:28:12.430Z,19.75
2019-05-07T17:30:45.285Z,26.73
2019-05-07T17:33:17.013Z,21.00
2019-05-07T17:35:49.203Z,19.35
2019-05-07T17:38:22.866Z,24.07
2019-05-07T17:40:53.480Z,26.07
2019-05-07T17:43:24.802Z,40.80
2019-05-07T17:45:56.104Z,39.15
2019-05-07T17:48:27.748Z,31.10
2019-05-07T17:51:00.638Z,35.70
2019-05-07T17:53:32.339Z,40.95
2019-05-07T17:56:04.265Z,42.08
2019-05-07T17:58:35.446Z,42.15
2019-05-07T18:01:06.752Z,37.80
2019-05-07T18:03:42.827Z,30.72
2019-05-07T18:06:14.273Z,34.43
2019-05-07T18:08:46.511Z,36.98
2019-05-07T18:11:21.170Z,38.45
2019-05-07T18:13:51.839Z,26.60
2019-05-07T18:16:24.831Z,24.55
2019-05-07T18:18:56.092Z,27.80
2019-05-07T18:21:27.384Z,28.92
2019-05-07T18:24:12.678Z,27.90
2019-05-07T18:26:33.750Z,32.60
2019-05-07T18:29:06.365Z,35.20
2019-05-07T18:31:42.049Z,30.50
2019-05-07T18:34:13.443Z,23.83
2019-05-07T18:36:44.722Z,27.90
2019-05-07T18:39:16.040Z,23.98
2019-05-07T18:41:47.305Z,25.08
2019-05-07T18:44:22.125Z,25.25
2019-05-07T18:46:55.836Z,29.00
2019-05-07T18:49:27.487Z,54.03
2019-05-07T18:51:58.981Z,27.37
2019-05-07T18:54:31.541Z,30.00
2019-05-07T18:57:03.182Z,27.67
2019-05-07T18:59:36.861Z,27.40
2019-05-07T19:02:09.221Z,30.60
2019-05-07T19:04:42.252Z,34.60
2019-05-07T19:07:13.573Z,33.40
2019-05-07T19:09:47.738Z,35.48
2019-05-07T19:12:22.091Z,26.97
2019-05-07T19:14:53.883Z,39.78
2019-05-07T19:17:25.847Z,28.30
2019-05-07T19:19:57.146Z,29.87
2019-05-07T19:22:28.289Z,29.67
2019-05-07T19:24:59.733Z,44.13
2019-05-07T19:27:32.858Z,35.90
2019-05-07T19:30:05.150Z,23.25
2019-05-07T19:32:38.674Z,33.40
2019-05-07T19:35:12.369Z,27.10
2019-05-07T19:37:43.789Z,22.10
2019-05-07T19:40:16.076Z,22.30
2019-05-07T19:42:48.728Z,26.12
2019-05-07T19:45:24.497Z,29.90
2019-05-07T19:47:56.147Z,23.15
2019-05-07T19:50:27.574Z,26.17
2019-05-07T19:52:58.785Z,29.82
2019-05-07T19:55:32.824Z,35.48
2019-05-07T19:58:05.901Z,39.63
2019-05-07T20:00:37.843Z,30.70
2019-05-07T20:03:12.985Z,34.90
2019-05-07T20:05:47.775Z,26.07
2019-05-07T20:08:20.307Z,30.43
2019-05-07T20:10:53.190Z,34.50
2019-05-07T20:13:36.485Z,30.30
2019-05-07T20:16:15.340Z,25.17
2019-05-07T20:18:47.718Z,28.15
2019-05-07T20:21:19.503Z,31.30
2019-05-07T20:23:52.912Z,27.15
2019-05-07T20:26:26.147Z,26.27
2019-05-07T20:28:58.184Z,36.88
2019-05-07T20:31:33.501Z,31.00
2019-05-07T20:34:05.359Z,26.93
2019-05-07T20:36:38.317Z,31.20
2019-05-07T20:39:12.789Z,28.70
2019-05-07T20:41:44.575Z,30.43
2019-05-07T20:44:15.945Z,37.35
2019-05-07T20:46:50.100Z,31.02
2019-05-07T20:49:22.512Z,29.87
2019-05-07T20:51:54.038Z,28.30
2019-05-07T20:54:33.107Z,27.02
2019-05-07T20:57:06.012Z,31.17
2019-05-07T20:59:37.286Z,46.00
2019-05-07T21:02:08.494Z,45.98
2019-05-07T21:04:43.459Z,47.43
2019-05-07T21:07:14.749Z,43.08
2019-05-07T21:09:46.006Z,47.98
2019-05-07T21:12:18.877Z,44.20
2019-05-07T21:14:52.340Z,43.15
2019-05-07T21:17:24.276Z,54.85
2019-05-07T21:19:55.516Z,56.55
2019-05-07T21:22:26.861Z,43.00
2019-05-07T21:24:58.189Z,42.83
2019-05-07T21:27:29.566Z,36.17
2019-05-07T21:30:02.482Z,42.00
2019-05-07T21:32:35.632Z,40.65
2019-05-07T21:35:09.126Z,35.38
2019-05-07T21:37:41.797Z,38.83
2019-05-07T21:40:13.161Z,32.98
2019-05-07T21:42:45.708Z,32.50
2019-05-07T21:45:18.700Z,28.77
2019-05-07T21:47:54.890Z,20.82
2019-05-07T21:50:27.280Z,26.27
2019-05-07T21:53:02.700Z,28.75
2019-05-07T21:55:58.875Z,27.73
2019-05-07T21:58:25.880Z,26.40
2019-05-07T22:01:07.598Z,25.48
2019-05-07T22:03:43.023Z,21.12
2019-05-07T22:06:13.294Z,17.57
2019-05-07T22:08:46.250Z,22.62
2019-05-07T22:11:17.709Z,20.05
2019-05-07T22:13:49.064Z,23.18
2019-05-07T22:16:22.160Z,28.55
2019-05-07T22:18:54.040Z,25.57
2019-05-07T22:21:28.130Z,27.42
2019-05-07T22:23:59.636Z,22.32
2019-05-07T22:26:32.777Z,26.07
2019-05-07T22:29:04.179Z,24.57
2019-05-07T22:31:43.745Z,22.27
2019-05-07T22:34:29.675Z,31.10
2019-05-07T22:37:03.296Z,28.98
2019-05-07T22:39:49.738Z,27.42
2019-05-07T22:42:22.573Z,27.65
2019-05-07T22:44:55.063Z,27.82
2019-05-07T22:47:28.368Z,28.17
2019-05-07T22:49:59.813Z,28.60
2019-05-07T22:52:32.771Z,28.35
2019-05-07T22:55:05.095Z,30.72
2019-05-07T22:57:42.011Z,28.75
2019-05-07T23:00:15.823Z,29.15
2019-05-07T23:02:48.445Z,23.07
2019-05-07T23:05:19.932Z,27.07
2019-05-07T23:07:52.663Z,19.75
2019-05-07T23:10:24.019Z,21.95
2019-05-07T23:12:55.761Z,23.22
2019-05-07T23:15:27.196Z,21.25
2019-05-07T23:17:59.560Z,24.32
2019-05-07T23:20:31.932Z,28.12
2019-05-07T23:23:03.431Z,23.35
2019-05-07T23:25:36.643Z,26.45
2019-05-07T23:28:09.567Z,24.40
2019-05-07T23:30:42.148Z,28.45
2019-05-07T23:33:14.821Z,31.23
2019-05-07T23:35:46.115Z,31.80
2019-05-07T23:38:17.537Z,34.23
2019-05-07T23:40:52.914Z,47.90
2019-05-07T23:43:24.927Z,36.85
2019-05-07T23:45:57.004Z,40.63
2019-05-07T23:48:33.865Z,32.58
2019-05-07T23:51:05.130Z,41.30
2019-05-07T23:53:38.163Z,40.98
2019-05-07T23:56:13.036Z,38.53
2019-05-07T23:58:44.029Z,38.35
